createdAt,value
2023-05-19T00:02:11.864Z,101631.56
2023-05-19T00:04:40.680Z,101620.41
2023-05-19T00:07:11.370Z,101620.41
2023-05-19T00:09:38.535Z,101624.84
2023-05-19T00:12:05.662Z,101622.03
2023-05-19T00:14:32.695Z,101627.63
2023-05-19T00:17:02.042Z,101624.03
2023-05-19T00:19:32.205Z,101625.16
2023-05-19T00:21:59.260Z,101624.34
2023-05-19T00:24:26.001Z,101621.53
2023-05-19T00:26:52.767Z,101622.38
2023-05-19T00:29:19.511Z,101622.69
2023-05-19T00:31:46.428Z,101614.31
2023-05-19T00:34:13.296Z,101619.88
2023-05-19T00:36:40.052Z,101621.53
2023-05-19T00:39:06.825Z,101621.03
2023-05-19T00:41:33.530Z,101612.34
2023-05-19T00:44:00.208Z,101614.66
2023-05-19T00:46:26.985Z,101615.97
2023-05-19T00:48:53.926Z,101608.25
2023-05-19T00:51:21.013Z,101613.81
2023-05-19T00:53:51.064Z,101613.81
2023-05-19T00:56:18.903Z,101608.56
2023-05-19T00:58:46.047Z,101606.28
2023-05-19T01:01:16.982Z,101606.63
2023-05-19T01:03:44.617Z,101603.28
2023-05-19T01:06:12.380Z,101603.81
2023-05-19T01:08:39.645Z,101610.53
2023-05-19T01:11:07.325Z,101601.03
2023-05-19T01:13:36.322Z,101611.34
2023-05-19T01:16:12.409Z,101600.00
2023-05-19T01:18:47.956Z,101603.28
2023-05-19T01:21:30.478Z,101605.25
2023-05-19T01:24:14.248Z,101600.84
2023-05-19T01:26:49.470Z,101599.19
2023-05-19T01:29:32.885Z,101605.59
2023-05-19T01:32:01.105Z,101609.19
2023-05-19T01:34:29.589Z,101612.28
2023-05-19T01:36:59.622Z,101615.09
2023-05-19T01:39:26.483Z,101607.88
2023-05-19T01:41:54.812Z,101609.50
2023-05-19T01:44:22.475Z,101604.56
2023-05-19T01:46:50.402Z,101604.56
2023-05-19T01:49:17.048Z,101604.56
2023-05-19T01:51:44.909Z,101604.06
2023-05-19T01:54:11.756Z,101603.56
2023-05-19T01:56:47.376Z,101599.94
2023-05-19T01:59:33.328Z,101591.25
2023-05-19T02:02:03.811Z,101590.47
2023-05-19T02:04:45.118Z,101592.41
2023-05-19T02:07:31.006Z,101592.41
2023-05-19T02:10:12.107Z,101593.53
2023-05-19T02:12:40.782Z,101589.09
2023-05-19T02:15:12.145Z,101598.63
2023-05-19T02:17:42.711Z,101590.25
2023-05-19T02:20:10.526Z,101590.56
2023-05-19T02:22:37.340Z,101589.44
2023-05-19T02:25:04.486Z,101582.53
2023-05-19T02:27:34.086Z,101584.16
2023-05-19T02:30:03.738Z,101580.88
2023-05-19T02:32:32.137Z,101583.16
2023-05-19T02:34:58.862Z,101586.44
2023-05-19T02:37:28.705Z,101576.97
2023-05-19T02:39:56.098Z,101576.47
2023-05-19T02:42:22.758Z,101572.00
2023-05-19T02:44:49.902Z,101576.75
2023-05-19T02:47:17.681Z,101574.31
2023-05-19T02:49:45.075Z,101568.72
2023-05-19T02:52:12.213Z,101574.59
2023-05-19T02:54:39.877Z,101573.78
2023-05-19T02:57:07.148Z,101572.66
2023-05-19T02:59:33.819Z,101571.00
2023-05-19T03:02:02.310Z,101565.41
2023-05-19T03:04:30.121Z,101570.50
2023-05-19T03:07:00.232Z,101567.72
2023-05-19T03:09:27.087Z,101572.44
2023-05-19T03:11:54.030Z,101567.50
2023-05-19T03:14:24.161Z,101559.47
2023-05-19T03:16:51.391Z,101565.69
2023-05-19T03:19:18.415Z,101562.75
2023-05-19T03:21:45.370Z,101570.50
2023-05-19T03:24:12.107Z,101565.06
2023-05-19T03:26:39.395Z,101570.91
2023-05-19T03:29:06.561Z,101567.97
2023-05-19T03:31:36.310Z,101571.88
2023-05-19T03:34:04.743Z,101574.97
2023-05-19T03:36:39.970Z,101570.22
2023-05-19T03:39:12.361Z,101584.50
2023-05-19T03:41:39.585Z,101578.09
2023-05-19T03:44:06.302Z,101580.38
2023-05-19T03:46:33.000Z,101568.06
2023-05-19T03:49:17.848Z,101572.50
2023-05-19T03:52:05.143Z,101566.13
2023-05-19T03:54:58.796Z,101569.72
2023-05-19T03:57:25.481Z,101580.38
2023-05-19T03:59:53.815Z,101573.16
2023-05-19T04:02:21.424Z,101575.31
2023-05-19T04:04:48.534Z,101577.59
2023-05-19T04:07:15.818Z,101583.97
2023-05-19T04:09:42.935Z,101575.59
2023-05-19T04:12:09.956Z,101589.66
2023-05-19T04:14:36.540Z,101593.78
2023-05-19T04:17:03.255Z,101599.34
2023-05-19T04:19:29.933Z,101592.97
2023-05-19T04:21:57.122Z,101604.91
2023-05-19T04:24:23.848Z,101604.13
2023-05-19T04:26:50.913Z,101607.53
2023-05-19T04:29:18.352Z,101602.25
2023-05-19T04:31:45.676Z,101604.53
2023-05-19T04:34:12.423Z,101606.84
2023-05-19T04:36:39.235Z,101602.88
2023-05-19T04:39:12.321Z,101599.28
2023-05-19T04:41:44.674Z,101603.50
2023-05-19T04:44:13.806Z,101603.84
2023-05-19T04:46:42.752Z,101602.69
2023-05-19T04:49:12.641Z,101601.69
2023-05-19T04:51:41.523Z,101598.56
2023-05-19T04:54:10.184Z,101596.31
2023-05-19T04:56:37.396Z,101593.00
2023-05-19T04:59:04.917Z,101598.56
2023-05-19T05:01:33.816Z,101600.22
2023-05-19T05:04:02.690Z,101600.22
2023-05-19T05:06:31.666Z,101604.13
2023-05-19T05:08:59.963Z,101595.47
2023-05-19T05:11:27.322Z,101598.56
2023-05-19T05:13:58.197Z,101593.81
2023-05-19T05:16:27.563Z,101593.81
2023-05-19T05:18:54.992Z,101602.19
2023-05-19T05:21:23.242Z,101603.00
2023-05-19T05:23:52.034Z,101604.13
2023-05-19T05:26:23.276Z,101599.41
2023-05-19T05:28:54.051Z,101594.66
2023-05-19T05:31:21.462Z,101594.66
2023-05-19T05:33:48.232Z,101595.16
2023-05-19T05:36:17.922Z,101587.44
2023-05-19T05:38:44.777Z,101597.44
2023-05-19T05:41:12.016Z,101582.38
2023-05-19T05:43:39.000Z,101584.00
2023-05-19T05:46:06.066Z,101588.47
2023-05-19T05:48:33.275Z,101577.31
2023-05-19T05:51:01.002Z,101586.81
2023-05-19T05:53:35.428Z,101582.88
2023-05-19T05:56:03.381Z,101582.25
2023-05-19T05:58:40.723Z,101585.53
2023-05-19T06:01:11.643Z,101588.81
2023-05-19T06:03:44.952Z,101591.63
2023-05-19T06:06:15.028Z,101584.09
2023-05-19T06:08:41.832Z,101593.28
2023-05-19T06:11:09.458Z,101596.88
2023-05-19T06:13:41.275Z,101602.47
2023-05-19T06:16:11.167Z,101597.16
2023-05-19T06:18:45.108Z,101601.03
2023-05-19T06:21:13.539Z,101601.38
2023-05-19T06:23:41.529Z,101595.19
2023-05-19T06:26:10.458Z,101596.97
2023-05-19T06:28:37.767Z,101594.88
2023-05-19T06:31:05.317Z,101591.09
2023-05-19T06:33:58.084Z,101602.06
2023-05-19T06:36:25.402Z,101601.56
2023-05-19T06:38:55.299Z,101592.13
2023-05-19T06:41:22.720Z,101597.56
2023-05-19T06:43:51.368Z,101599.69
2023-05-19T06:46:20.923Z,101594.66
2023-05-19T06:48:48.161Z,101602.88
2023-05-19T06:51:21.732Z,101603.53
2023-05-19T06:53:52.314Z,101600.41
2023-05-19T06:56:19.409Z,101599.09
2023-05-19T06:58:46.324Z,101599.41
2023-05-19T07:01:13.067Z,101601.25
2023-05-19T07:03:45.785Z,101605.28
2023-05-19T07:06:13.950Z,101603.91
2023-05-19T07:08:41.586Z,101601.75
2023-05-19T07:11:08.783Z,101599.28
2023-05-19T07:13:35.575Z,101604.06
2023-05-19T07:16:02.335Z,101602.41
2023-05-19T07:18:31.900Z,101599.44
2023-05-19T07:20:59.204Z,101602.22
2023-05-19T07:23:26.438Z,101600.25
2023-05-19T07:25:56.570Z,101594.69
2023-05-19T07:28:23.615Z,101602.53
2023-05-19T07:30:50.656Z,101602.53
2023-05-19T07:33:17.448Z,101605.00
2023-05-19T07:35:45.529Z,101601.06
2023-05-19T07:38:12.268Z,101589.75
2023-05-19T07:40:39.025Z,101597.47
2023-05-19T07:43:05.718Z,101596.84
2023-05-19T07:45:32.554Z,101600.78
2023-05-19T07:47:59.271Z,101599.31
2023-05-19T07:50:26.912Z,101591.63
2023-05-19T07:52:53.757Z,101597.53
2023-05-19T07:55:23.233Z,101594.25
2023-05-19T07:57:50.909Z,101592.59
2023-05-19T08:00:18.226Z,101588.16
2023-05-19T08:02:45.719Z,101594.00
2023-05-19T08:05:15.935Z,101596.13
2023-05-19T08:07:42.764Z,101592.84
2023-05-19T08:10:09.684Z,101588.72
2023-05-19T08:12:36.725Z,101594.59
2023-05-19T08:15:03.856Z,101588.53
2023-05-19T08:17:30.765Z,101595.25
2023-05-19T08:19:57.475Z,101593.94
2023-05-19T08:22:24.299Z,101587.53
2023-05-19T08:24:51.893Z,101576.34
2023-05-19T08:27:18.745Z,101586.72
2023-05-19T08:29:45.489Z,101573.06
2023-05-19T08:32:13.373Z,101575.38
2023-05-19T08:34:41.262Z,101575.38
2023-05-19T08:37:08.158Z,101555.84
2023-05-19T08:39:35.060Z,101558.63
2023-05-19T08:42:02.501Z,101555.84
2023-05-19T08:44:30.906Z,101552.22
2023-05-19T08:47:01.511Z,101534.66
2023-05-19T08:49:32.932Z,101537.44
2023-05-19T08:52:17.947Z,101538.28
2023-05-19T08:54:53.279Z,101529.91
2023-05-19T08:57:21.472Z,101530.75
2023-05-19T08:59:49.133Z,101527.13
2023-05-19T09:02:16.675Z,101543.03
2023-05-19T09:04:46.118Z,101529.09
2023-05-19T09:07:14.507Z,101523.50
2023-05-19T09:09:43.933Z,101519.56
2023-05-19T09:12:11.679Z,101515.13
2023-05-19T09:14:38.675Z,101514.00
2023-05-19T09:17:06.309Z,101519.56
2023-05-19T09:19:33.289Z,101514.00
2023-05-19T09:22:03.703Z,101515.63
2023-05-19T09:24:31.090Z,101527.31
2023-05-19T09:27:00.034Z,101524.00
2023-05-19T09:29:27.371Z,101528.44
2023-05-19T09:31:57.526Z,101523.28
2023-05-19T09:34:25.069Z,101521.66
2023-05-19T09:36:53.385Z,101519.03
2023-05-19T09:39:22.497Z,101516.91
2023-05-19T09:41:58.486Z,101511.81
2023-05-19T09:44:30.446Z,101512.63
2023-05-19T09:46:58.535Z,101505.72
2023-05-19T09:49:30.170Z,101505.22
2023-05-19T09:51:58.843Z,101516.41
2023-05-19T09:54:28.388Z,101510.81
2023-05-19T09:57:08.330Z,101518.03
2023-05-19T09:59:36.585Z,101510.81
2023-05-19T10:02:03.609Z,101510.00
2023-05-19T10:04:31.470Z,101509.16
2023-05-19T10:07:05.418Z,101506.03
2023-05-19T10:09:32.853Z,101498.81
2023-05-19T10:11:59.712Z,101502.75
2023-05-19T10:14:28.045Z,101500.28
2023-05-19T10:16:56.881Z,101511.47
2023-05-19T10:19:25.970Z,101496.53
2023-05-19T10:21:53.317Z,101498.69
2023-05-19T10:24:21.330Z,101495.06
2023-05-19T10:27:08.404Z,101497.03
2023-05-19T10:29:38.470Z,101499.97
2023-05-19T10:32:12.172Z,101495.88
2023-05-19T10:34:57.859Z,101489.47
2023-05-19T10:37:39.668Z,101488.97
2023-05-19T10:40:12.124Z,101490.59
2023-05-19T10:42:52.015Z,101481.41
2023-05-19T10:45:21.953Z,101481.72
2023-05-19T10:47:51.621Z,101471.06
2023-05-19T10:50:18.479Z,101475.50
2023-05-19T10:52:53.905Z,101479.94
2023-05-19T10:55:56.024Z,101469.91
2023-05-19T10:58:39.570Z,101476.50
2023-05-19T11:01:20.745Z,101477.63
2023-05-19T11:03:48.713Z,101469.25
2023-05-19T11:06:21.888Z,101473.72
2023-05-19T11:09:05.035Z,101480.91
2023-05-19T11:11:52.463Z,101464.16
2023-05-19T11:14:21.704Z,101470.56
2023-05-19T11:16:53.364Z,101469.94
2023-05-19T11:19:26.425Z,101475.19
2023-05-19T11:21:57.520Z,101465.16
2023-05-19T11:24:40.109Z,101467.63
2023-05-19T11:27:31.462Z,101464.50
2023-05-19T11:30:06.749Z,101458.28
2023-05-19T11:32:35.846Z,101448.72
2023-05-19T11:35:02.827Z,101447.28
2023-05-19T11:37:33.340Z,101449.56
2023-05-19T11:40:07.590Z,101441.38
2023-05-19T11:42:35.540Z,101445.97
2023-05-19T11:45:03.175Z,101449.91
2023-05-19T11:47:42.101Z,101438.38
2023-05-19T11:50:14.354Z,101430.63
2023-05-19T11:52:44.952Z,101434.75
2023-05-19T11:55:16.214Z,101435.88
2023-05-19T12:00:31.144Z,101431.50
2023-05-19T12:02:58.221Z,101432.41
2023-05-19T12:05:26.703Z,101436.81
2023-05-19T12:07:54.264Z,101439.41
2023-05-19T12:10:26.174Z,101429.16
2023-05-19T12:12:54.315Z,101427.69
2023-05-19T12:15:22.302Z,101423.72
2023-05-19T12:17:57.416Z,101416.00
2023-05-19T12:20:26.263Z,101411.63
2023-05-19T12:22:55.072Z,101406.53
2023-05-19T12:25:22.404Z,101408.66
2023-05-19T12:27:49.735Z,101393.69
2023-05-19T12:30:17.194Z,101399.78
2023-05-19T12:32:44.155Z,101397.16
2023-05-19T12:35:11.734Z,101404.88
2023-05-19T12:37:42.581Z,101398.34
2023-05-19T12:40:10.019Z,101395.66
2023-05-19T12:42:37.914Z,101401.91
2023-05-19T12:45:05.206Z,101400.47
2023-05-19T12:47:34.874Z,101407.69
2023-05-19T12:50:04.904Z,101396.69
2023-05-19T12:52:35.458Z,101396.03
2023-05-19T12:55:06.562Z,101396.38
2023-05-19T12:57:42.136Z,101389.63
2023-05-19T13:00:17.636Z,101387.97
2023-05-19T13:03:00.941Z,101391.28
2023-05-19T13:05:29.267Z,101395.03
2023-05-19T13:08:00.285Z,101397.84
2023-05-19T13:10:29.614Z,101394.38
2023-05-19T13:12:57.118Z,101388.78
2023-05-19T13:15:26.332Z,101388.94
2023-05-19T13:17:53.484Z,101381.38
2023-05-19T13:20:21.581Z,101375.44
2023-05-19T13:22:48.866Z,101371.81
2023-05-19T13:25:16.812Z,101377.41
2023-05-19T13:27:46.084Z,101362.28
2023-05-19T13:30:13.036Z,101365.91
2023-05-19T13:32:39.903Z,101359.47
2023-05-19T13:35:07.177Z,101360.97
2023-05-19T13:37:34.214Z,101358.34
2023-05-19T13:40:01.526Z,101362.91
2023-05-19T13:42:28.404Z,101362.91
2023-05-19T13:44:59.041Z,101351.72
2023-05-19T13:47:26.031Z,101357.16
2023-05-19T13:49:53.738Z,101349.28
2023-05-19T13:52:21.276Z,101345.97
2023-05-19T13:54:48.829Z,101347.16
2023-05-19T13:57:16.266Z,101341.19
2023-05-19T13:59:57.612Z,101334.94
2023-05-19T14:02:27.667Z,101346.28
2023-05-19T14:04:54.438Z,101344.97
2023-05-19T14:07:21.276Z,101349.91
2023-05-19T14:09:47.975Z,101353.50
2023-05-19T14:12:15.460Z,101343.94
2023-05-19T14:14:42.182Z,101339.03
2023-05-19T14:17:08.861Z,101349.88
2023-05-19T14:19:35.895Z,101339.41
2023-05-19T14:22:02.814Z,101345.00
2023-05-19T14:24:29.796Z,101342.63
2023-05-19T14:26:56.702Z,101346.09
2023-05-19T14:29:23.531Z,101346.72
2023-05-19T14:31:50.612Z,101344.06
2023-05-19T14:34:20.910Z,101345.00
2023-05-19T14:36:49.272Z,101336.41
2023-05-19T14:39:16.373Z,101337.91
2023-05-19T14:41:42.989Z,101336.22
2023-05-19T14:44:09.971Z,101337.19
2023-05-19T14:46:36.848Z,101337.03
2023-05-19T14:49:04.222Z,101342.19
2023-05-19T14:51:31.613Z,101338.47
2023-05-19T14:53:58.513Z,101338.94
2023-05-19T14:56:25.421Z,101342.41
2023-05-19T14:58:52.143Z,101324.38
2023-05-19T15:01:18.894Z,101325.34
2023-05-19T15:03:46.067Z,101323.22
2023-05-19T15:06:13.026Z,101322.06
2023-05-19T15:08:41.128Z,101323.50
2023-05-19T15:11:08.085Z,101321.38
2023-05-19T15:13:34.889Z,101314.41
2023-05-19T15:16:16.147Z,101318.41
2023-05-19T15:18:44.114Z,101319.25
2023-05-19T15:21:10.910Z,101314.16
2023-05-19T15:23:37.602Z,101313.47
2023-05-19T15:26:04.396Z,101322.19
2023-05-19T15:28:31.205Z,101314.63
2023-05-19T15:30:57.967Z,101309.03
2023-05-19T15:33:24.741Z,101306.22
2023-05-19T15:35:52.266Z,101310.69
2023-05-19T15:38:19.866Z,101309.03
2023-05-19T15:40:46.939Z,101318.50
2023-05-19T15:43:14.145Z,101316.75
2023-05-19T15:45:41.014Z,101305.19
2023-05-19T15:48:08.187Z,101307.47
2023-05-19T15:50:35.565Z,101309.09
2023-05-19T15:53:02.658Z,101301.19
2023-05-19T15:55:29.483Z,101302.69
2023-05-19T15:57:56.175Z,101301.66
2023-05-19T16:00:22.934Z,101288.84
2023-05-19T16:02:49.752Z,101290.66
2023-05-19T16:05:16.868Z,101287.88
2023-05-19T16:07:43.589Z,101280.69
2023-05-19T16:10:10.683Z,101279.63
2023-05-19T16:12:37.822Z,101280.44
2023-05-19T16:15:04.868Z,101283.22
2023-05-19T16:17:31.634Z,101278.09
2023-05-19T16:19:58.539Z,101268.28
2023-05-19T16:22:25.643Z,101269.16
2023-05-19T16:24:52.693Z,101274.25
2023-05-19T16:27:19.654Z,101274.00
2023-05-19T16:29:46.504Z,101272.56
2023-05-19T16:32:13.365Z,101270.97
2023-05-19T16:34:40.221Z,101272.63
2023-05-19T16:37:06.983Z,101263.31
2023-05-19T16:39:36.151Z,101263.53
2023-05-19T16:42:03.362Z,101264.22
2023-05-19T16:44:30.071Z,101260.28
2023-05-19T16:46:56.697Z,101269.16
2023-05-19T16:49:23.631Z,101266.88
2023-05-19T16:51:52.783Z,101263.84
2023-05-19T16:54:19.851Z,101261.50
2023-05-19T16:56:46.676Z,101254.25
2023-05-19T16:59:13.786Z,101240.16
2023-05-19T17:01:40.747Z,101254.69
2023-05-19T17:04:07.504Z,101247.16
2023-05-19T17:06:34.208Z,101248.06
2023-05-19T17:09:01.039Z,101248.75
2023-05-19T17:11:28.035Z,101254.56
2023-05-19T17:13:54.896Z,101254.06
2023-05-19T17:16:21.628Z,101249.16
2023-05-19T17:18:48.365Z,101258.22
2023-05-19T17:21:15.480Z,101259.06
2023-05-19T17:23:42.092Z,101256.13
2023-05-19T17:26:08.926Z,101254.50
2023-05-19T17:28:35.751Z,101256.31
2023-05-19T17:31:09.852Z,101252.59
2023-05-19T17:33:36.857Z,101251.41
2023-05-19T17:36:04.660Z,101246.03
2023-05-19T17:38:34.061Z,101254.44
2023-05-19T17:41:09.559Z,101257.91
2023-05-19T17:43:41.109Z,101257.91
2023-05-19T17:46:08.471Z,101251.03
2023-05-19T17:48:36.365Z,101258.59
2023-05-19T17:51:05.658Z,101256.97
2023-05-19T17:53:33.585Z,101265.38
2023-05-19T17:56:02.617Z,101259.25
2023-05-19T17:58:29.765Z,101261.59
2023-05-19T18:00:56.748Z,101254.34
2023-05-19T18:03:24.303Z,101269.53
2023-05-19T18:05:51.455Z,101261.13
2023-05-19T18:08:18.695Z,101256.69
2023-05-19T18:10:46.296Z,101255.03
2023-05-19T18:13:15.727Z,101262.97
2023-05-19T18:15:42.595Z,101259.69
2023-05-19T18:18:10.884Z,101258.88
2023-05-19T18:20:44.268Z,101258.03
2023-05-19T18:23:11.440Z,101264.28
2023-05-19T18:25:38.174Z,101261.47
2023-05-19T18:28:05.140Z,101266.59
2023-05-19T18:30:32.193Z,101265.78
2023-05-19T18:33:02.159Z,101266.13
2023-05-19T18:35:29.161Z,101268.44
2023-05-19T18:37:57.134Z,101266.13
2023-05-19T18:40:24.611Z,101262.50
2023-05-19T18:42:51.549Z,101262.50
2023-05-19T18:45:18.420Z,101264.50
2023-05-19T18:47:45.238Z,101271.22
2023-05-19T18:50:12.078Z,101276.00
2023-05-19T18:52:38.839Z,101276.81
2023-05-19T18:55:07.229Z,101279.63
2023-05-19T18:57:34.127Z,101279.16
2023-05-19T19:00:00.972Z,101280.78
2023-05-19T19:02:27.991Z,101284.75
2023-05-19T19:04:54.698Z,101282.28
2023-05-19T19:07:21.428Z,101284.75
2023-05-19T19:09:48.164Z,101287.53
2023-05-19T19:12:14.837Z,101287.06
2023-05-19T19:14:41.756Z,101295.78
2023-05-19T19:17:08.461Z,101297.44
2023-05-19T19:19:35.363Z,101302.19
2023-05-19T19:22:02.078Z,101299.75
2023-05-19T19:24:30.765Z,101304.16
2023-05-19T19:26:57.610Z,101298.94
2023-05-19T19:29:24.291Z,101304.53
2023-05-19T19:31:51.153Z,101304.03
2023-05-19T19:34:19.891Z,101309.13
2023-05-19T19:36:47.891Z,101314.72
2023-05-19T19:39:14.661Z,101310.78
2023-05-19T19:41:41.257Z,101314.72
2023-05-19T19:44:08.155Z,101315.56
2023-05-19T19:46:35.261Z,101317.06
2023-05-19T19:49:02.280Z,101321.00
2023-05-19T19:51:29.234Z,101329.06
2023-05-19T19:53:56.299Z,101325.91
2023-05-19T19:56:24.702Z,101322.66
2023-05-19T19:58:51.638Z,101330.69
2023-05-19T20:01:20.500Z,101328.56
2023-05-19T20:03:48.144Z,101328.91
2023-05-19T20:06:14.994Z,101325.75
2023-05-19T20:08:41.730Z,101332.53
2023-05-19T20:11:08.392Z,101332.19
2023-05-19T20:13:35.282Z,101327.25
2023-05-19T20:16:02.190Z,101324.81
2023-05-19T20:18:29.985Z,101331.22
2023-05-19T20:20:57.025Z,101336.81
2023-05-19T20:23:23.735Z,101340.78
2023-05-19T20:26:10.114Z,101335.19
2023-05-19T20:28:37.432Z,101333.53
2023-05-19T20:31:05.022Z,101329.59
2023-05-19T20:33:32.062Z,101333.53
2023-05-19T20:35:59.011Z,101336.28
2023-05-19T20:38:25.765Z,101340.88
2023-05-19T20:40:52.704Z,101339.69
2023-05-19T20:43:19.383Z,101341.19
2023-05-19T20:45:46.551Z,101337.09
2023-05-19T20:48:13.450Z,101340.09
2023-05-19T20:50:40.537Z,101347.34
2023-05-19T20:53:07.566Z,101343.38
2023-05-19T20:55:36.169Z,101344.03
2023-05-19T20:58:03.129Z,101345.69
2023-05-19T21:00:30.674Z,101350.13
2023-05-19T21:02:57.770Z,101343.38
2023-05-19T21:05:24.865Z,101347.34
2023-05-19T21:07:51.766Z,101348.13
2023-05-19T21:10:18.612Z,101347.34
2023-05-19T21:12:46.370Z,101345.69
2023-05-19T21:15:13.339Z,101344.88
2023-05-19T21:17:40.707Z,101347.34
2023-05-19T21:20:08.377Z,101342.91
2023-05-19T21:22:36.066Z,101351.44
2023-05-19T21:25:02.957Z,101350.59
2023-05-19T21:27:32.233Z,101352.59
2023-05-19T21:29:59.709Z,101357.81
2023-05-19T21:32:27.347Z,101348.28
2023-05-19T21:34:54.096Z,101343.53
2023-05-19T21:37:21.710Z,101353.06
2023-05-19T21:39:49.188Z,101339.44
2023-05-19T21:42:16.029Z,101338.75
2023-05-19T21:44:42.909Z,101343.84
2023-05-19T21:47:09.799Z,101337.78
2023-05-19T21:49:38.315Z,101339.44
2023-05-19T21:52:05.597Z,101338.59
2023-05-19T21:54:33.279Z,101336.16
2023-05-19T21:57:00.624Z,101334.97
2023-05-19T21:59:27.499Z,101338.59
2023-05-19T22:01:54.616Z,101337.78
2023-05-19T22:04:22.527Z,101340.56
2023-05-19T22:06:49.400Z,101336.16
2023-05-19T22:09:16.647Z,101335.34
2023-05-19T22:11:43.343Z,101335.66
2023-05-19T22:14:10.355Z,101335.34
2023-05-19T22:16:37.078Z,101334.50
2023-05-19T22:19:04.000Z,101332.84
2023-05-19T22:21:31.190Z,101331.22
2023-05-19T22:23:57.891Z,101336.16
2023-05-19T22:26:24.738Z,101328.09
2023-05-19T22:28:51.835Z,101330.06
2023-05-19T22:31:18.624Z,101338.44
2023-05-19T22:33:45.322Z,101336.81
2023-05-19T22:36:12.346Z,101336.81
2023-05-19T22:38:39.113Z,101340.41
2023-05-19T22:41:05.953Z,101337.78
2023-05-19T22:43:32.734Z,101338.94
2023-05-19T22:45:59.431Z,101329.75
2023-05-19T22:48:26.290Z,101335.66
2023-05-19T22:50:53.106Z,101334.50
2023-05-19T22:53:19.787Z,101343.22
2023-05-19T22:55:46.604Z,101341.59
2023-05-19T22:58:13.273Z,101337.97
2023-05-19T23:00:39.983Z,101342.41
2023-05-19T23:03:06.777Z,101331.22
2023-05-19T23:05:33.778Z,101333.53
2023-05-19T23:08:00.686Z,101329.59
2023-05-19T23:10:27.402Z,101337.97
2023-05-19T23:12:54.134Z,101331.72
2023-05-19T23:15:20.893Z,101331.22
2023-05-19T23:17:47.654Z,101333.53
2023-05-19T23:20:14.550Z,101331.22
2023-05-19T23:22:41.300Z,101336.31
2023-05-19T23:25:08.296Z,101333.22
2023-05-19T23:27:38.185Z,101337.16
2023-05-19T23:30:05.523Z,101340.78
2023-05-19T23:32:32.312Z,101336.31
2023-05-19T23:35:09.386Z,101339.13
2023-05-19T23:37:36.122Z,101334.03
2023-05-19T23:40:02.847Z,101335.84
2023-05-19T23:42:29.626Z,101323.84
2023-05-19T23:44:56.300Z,101327.00
2023-05-19T23:47:23.056Z,101327.47
2023-05-19T23:49:49.929Z,101330.25
2023-05-19T23:52:16.596Z,101335.84
2023-05-19T23:54:43.523Z,101339.78
2023-05-19T23:57:10.749Z,101331.41
2023-05-19T23:59:37.482Z,101327.81
